24°C Temp
19°C Dewpoint
74% Humidity
Temperature
13 KM/H
8 MPH
7 KTS
110°
East South
East

Wind Speed
Partly Cloudy
Conditions
Pressure 1012.92 (hPa) - 29.91 (in)
Visibility 6.2 (mi) - 10.0 (km)

Current Conditions
LIPR
Location 4(km)
Metar :LIPR 251720Z 11007KT 070V130 9999 FEW030 24/19 Q1013
Wed 25th May 19:20 pm

Airport
  Metar Aviation API Data Provided by https://www.checkwx.com/ PHP scripts by weather34.com ©2022